Black Rock, New Mexico
Current Conditions -  °F | °C
As of 12:53 PM on Thursday 29 Jan 2015 (Local Time) from KGUP Reporting Station
Broken Clouds Broken Clouds  
Wind Chill: 51°   Ceiling: 11000
Heat Index: 51°   Visibility: 10mi
Dew Point: 31°   Wind: 9mph
Humidity: 46%   Direction: 30°NNE
Pressure: 30.31"   Gusts: NA
Location:  35.0898°N, 108.763°W
Report Text: KGUP 291953Z AUTO 03008KT 10SM BKN110 11/M01 A3031 RMK AO2 SLP216 T01061006
Loading
Personal Weather Stations






























Interactive Weather Map New forecast layout! Learn more

10-Day Weather Forecast

Advertisements
Track Severe Weather on mobile